KAUM/AUM METAR and TAF weather

Enter ICAO airport designator
Station Type Date Time Source
KAUM METAR 2021/04/14 19:35 UTC NOAA

KAUM 141935Z AUTO 30010G18KT 10SM OVC018 03/00 A3014 RMK AO2


Station Type Date Time Source
KAUM Decoded METAR 2021/04/14 19:35 UTC NOAA

Austin Municipal, MN, United States (KAUM) 43-40N 092-56W
Apr 14, 2021 - 03:35 PM EDT / 2021.04.14 1935 UTC
Wind: from the WNW (300 degrees) at 12 MPH (10 KT) gusting to 21 MPH (18 KT):0
Visibility: 10 mile(s):0
Sky conditions: overcast
Temperature: 37 F (3 C)
Dew Point: 32 F (0 C)
Relative Humidity: 80%
Pressure (altimeter): 30.14 in. Hg (1020 hPa)
ob: KAUM 141935Z AUTO 30010G18KT 10SM OVC018 03/00 A3014 RMK AO2
cycle: 19

Station Type Date Time Source
KAUM TAF UTC NOAA

Error!

Example: see airport list